Terminal Aerodrome Forecast
Issued by NWS Sterling, VA

Current Version | Previous Version | Graphics & Text | Print | Product List | Glossary On
Versions: 1 2 3 4 5 6 7 8 9 10 11 12 13 14 15 16 17 18 19 20 21 22
000
FTUS41 KLWX 210534
TAFDCA
TAF
KDCA 210534Z 2106/2206 VRB03KT P6SM OVC060
     FM210700 VRB03KT P6SM -SHRA OVC050
     FM210900 VRB03KT P6SM OVC050
     FM211600 36006KT P6SM OVC040
     FM212100 33008KT P6SM SCT035 BKN250=

USA.gov is the U.S. government's official web portal to all federal, state and local government web resources and services.